createdAt,value
2017-07-14T00:01:06.878Z,5.97
2017-07-14T00:03:34.944Z,5.40
2017-07-14T00:06:03.039Z,7.30
2017-07-14T00:08:31.867Z,7.20
2017-07-14T00:10:59.941Z,7.80
2017-07-14T00:13:28.016Z,8.37
2017-07-14T00:15:56.084Z,6.50
2017-07-14T00:18:24.172Z,8.57
2017-07-14T00:20:52.229Z,7.53
2017-07-14T00:23:20.302Z,5.87
2017-07-14T00:25:48.395Z,7.43
2017-07-14T00:28:16.548Z,5.57
2017-07-14T00:30:44.608Z,7.10
2017-07-14T00:33:12.679Z,7.30
2017-07-14T00:35:40.744Z,9.80
2017-07-14T00:38:08.830Z,7.60
2017-07-14T00:40:36.887Z,6.90
2017-07-14T00:43:04.952Z,10.73
2017-07-14T00:45:33.806Z,7.23
2017-07-14T00:48:01.872Z,5.77
2017-07-14T00:50:29.960Z,5.50
2017-07-14T00:52:58.026Z,7.00
2017-07-14T00:55:26.104Z,6.27
2017-07-14T00:57:54.177Z,6.40
2017-07-14T01:00:22.244Z,8.47
2017-07-14T01:02:50.329Z,9.70
2017-07-14T01:05:18.400Z,7.50
2017-07-14T01:07:46.464Z,8.20
2017-07-14T01:10:14.535Z,7.17
2017-07-14T01:12:42.596Z,7.27
2017-07-14T01:15:10.662Z,9.87
2017-07-14T01:17:38.733Z,8.50
2017-07-14T01:20:06.809Z,7.70
2017-07-14T01:22:34.878Z,8.40
2017-07-14T01:25:02.953Z,7.60
2017-07-14T01:27:31.059Z,8.23
2017-07-14T01:29:59.125Z,10.93
2017-07-14T01:32:27.429Z,9.80
2017-07-14T01:34:55.493Z,9.40
2017-07-14T01:37:23.559Z,7.40
2017-07-14T01:39:51.620Z,9.80
2017-07-14T01:42:19.700Z,8.33
2017-07-14T01:44:47.772Z,7.77
2017-07-14T01:47:16.603Z,6.63
2017-07-14T01:49:44.674Z,8.93
2017-07-14T01:52:12.749Z,10.10
2017-07-14T01:54:40.824Z,7.70
2017-07-14T01:57:08.895Z,8.43
2017-07-14T01:59:36.980Z,10.07
2017-07-14T02:02:05.043Z,9.47
2017-07-14T02:04:33.110Z,7.10
2017-07-14T02:07:01.181Z,6.80
2017-07-14T02:09:29.252Z,5.80
2017-07-14T02:11:57.324Z,8.33
2017-07-14T02:14:25.407Z,6.90
2017-07-14T02:16:53.469Z,7.87
2017-07-14T02:19:21.543Z,6.23
2017-07-14T02:21:49.617Z,7.20
2017-07-14T02:24:17.687Z,7.13
2017-07-14T02:26:45.760Z,8.23
2017-07-14T02:29:13.835Z,6.30
2017-07-14T02:31:41.927Z,6.27
2017-07-14T02:34:09.991Z,7.00
2017-07-14T02:36:38.501Z,6.37
2017-07-14T02:39:06.575Z,7.17
2017-07-14T02:41:34.682Z,11.23
2017-07-14T02:44:02.791Z,6.80
2017-07-14T02:46:30.852Z,8.83
2017-07-14T02:48:58.920Z,8.47
2017-07-14T02:51:26.993Z,6.97
2017-07-14T02:53:55.065Z,8.57
2017-07-14T02:56:23.140Z,9.90
2017-07-14T02:58:51.216Z,9.53
2017-07-14T03:01:19.289Z,10.43
2017-07-14T03:03:47.363Z,7.53
2017-07-14T03:06:15.429Z,7.90
2017-07-14T03:08:43.514Z,6.97
2017-07-14T03:11:11.577Z,7.67
2017-07-14T03:13:39.657Z,6.50
2017-07-14T03:16:07.740Z,5.87
2017-07-14T03:18:35.812Z,7.43
2017-07-14T03:21:03.884Z,6.63
2017-07-14T03:23:31.959Z,6.60
2017-07-14T03:26:00.026Z,7.00
2017-07-14T03:28:28.100Z,6.63
2017-07-14T03:30:56.177Z,7.87
2017-07-14T03:33:24.244Z,7.40
2017-07-14T03:35:52.320Z,6.93
2017-07-14T03:38:20.392Z,6.27
2017-07-14T03:40:48.987Z,7.70
2017-07-14T03:43:17.061Z,9.20
2017-07-14T03:45:45.135Z,6.00
2017-07-14T03:48:13.216Z,10.73
2017-07-14T03:50:42.088Z,7.70
2017-07-14T03:53:10.154Z,8.10
2017-07-14T03:55:38.228Z,10.07
2017-07-14T03:58:06.305Z,9.63
2017-07-14T04:00:34.382Z,8.30
2017-07-14T04:03:02.460Z,9.47
2017-07-14T04:05:30.520Z,12.63
2017-07-14T04:07:58.594Z,13.43
2017-07-14T04:10:26.666Z,10.60
2017-07-14T04:12:54.740Z,15.00
2017-07-14T04:15:22.819Z,8.23
2017-07-14T04:17:50.900Z,9.23
2017-07-14T04:20:19.009Z,9.90
2017-07-14T04:22:47.076Z,8.73
2017-07-14T04:25:15.153Z,8.23
2017-07-14T04:27:43.223Z,11.97
2017-07-14T04:30:11.299Z,10.30
2017-07-14T04:32:39.355Z,9.47
2017-07-14T04:35:07.440Z,7.70
2017-07-14T04:37:35.517Z,13.37
2017-07-14T04:40:03.602Z,10.37
2017-07-14T04:42:31.684Z,13.87
2017-07-14T04:44:59.776Z,9.57
2017-07-14T04:47:27.847Z,9.10
2017-07-14T04:49:55.920Z,9.17
2017-07-14T04:52:23.997Z,9.00
2017-07-14T04:54:52.094Z,8.13
2017-07-14T04:57:20.168Z,8.20
2017-07-14T04:59:48.268Z,9.63
2017-07-14T05:02:16.359Z,9.10
2017-07-14T05:04:44.433Z,8.67
2017-07-14T05:07:12.520Z,9.47
2017-07-14T05:09:40.610Z,10.77
2017-07-14T05:12:08.691Z,9.63
2017-07-14T05:14:36.769Z,12.13
2017-07-14T05:17:04.842Z,11.70
2017-07-14T05:19:32.947Z,11.63
2017-07-14T05:22:01.016Z,10.40
2017-07-14T05:24:29.156Z,13.20
2017-07-14T05:26:57.227Z,12.63
2017-07-14T05:29:25.323Z,11.37
2017-07-14T05:31:54.156Z,10.60
2017-07-14T05:34:22.234Z,12.57
2017-07-14T05:36:50.399Z,12.67
2017-07-14T05:39:18.474Z,12.40
2017-07-14T05:41:46.544Z,11.57
2017-07-14T05:44:14.643Z,12.17
2017-07-14T05:46:42.711Z,11.07
2017-07-14T05:49:10.786Z,12.03
2017-07-14T05:51:38.878Z,10.43
2017-07-14T05:54:06.948Z,11.73
2017-07-14T05:56:36.049Z,9.63
2017-07-14T05:59:04.175Z,10.37
2017-07-14T06:01:32.301Z,10.80
2017-07-14T06:04:00.376Z,17.23
2017-07-14T06:06:29.257Z,10.93
2017-07-14T06:08:57.341Z,9.80
2017-07-14T06:11:25.434Z,8.27
2017-07-14T06:13:53.516Z,10.00
2017-07-14T06:16:21.624Z,9.67
2017-07-14T06:18:49.702Z,8.33
2017-07-14T06:21:17.790Z,8.30
2017-07-14T06:23:45.892Z,9.17
2017-07-14T06:26:14.742Z,9.20
2017-07-14T06:28:43.166Z,11.33
2017-07-14T06:31:11.252Z,18.93
2017-07-14T06:33:39.397Z,9.30
2017-07-14T06:36:08.240Z,10.57
2017-07-14T06:38:36.330Z,9.03
2017-07-14T06:41:05.231Z,13.23
2017-07-14T06:43:33.337Z,11.63
2017-07-14T06:46:02.189Z,12.60
2017-07-14T06:48:30.275Z,8.17
2017-07-14T06:50:58.379Z,9.63
2017-07-14T06:53:26.493Z,5.87
2017-07-14T06:55:54.579Z,6.57
2017-07-14T06:58:22.661Z,5.70
2017-07-14T07:00:50.757Z,7.00
2017-07-14T07:03:19.614Z,6.47
2017-07-14T07:05:47.732Z,10.10
2017-07-14T07:08:15.867Z,14.57
2017-07-14T07:10:43.972Z,8.20
2017-07-14T07:13:12.064Z,6.60
2017-07-14T07:15:40.157Z,10.40
2017-07-14T07:18:08.244Z,6.80
2017-07-14T07:20:36.478Z,5.27
2017-07-14T07:23:04.578Z,6.90
2017-07-14T07:25:32.681Z,6.63
2017-07-14T07:28:00.775Z,8.63
2017-07-14T07:30:28.854Z,11.43
2017-07-14T07:32:57.717Z,9.10
2017-07-14T07:35:25.829Z,9.47
2017-07-14T07:37:53.894Z,7.10
2017-07-14T07:40:22.753Z,10.50
2017-07-14T07:42:50.825Z,10.40
2017-07-14T07:45:18.913Z,7.93
2017-07-14T07:47:53.270Z,10.70
2017-07-14T07:50:21.366Z,6.20
2017-07-14T07:52:49.457Z,7.40
2017-07-14T07:55:17.555Z,6.60
2017-07-14T07:57:46.410Z,6.17
2017-07-14T08:00:14.488Z,8.50
2017-07-14T08:03:00.293Z,7.60
2017-07-14T08:05:28.401Z,8.03
2017-07-14T08:07:56.505Z,7.30
2017-07-14T08:10:24.596Z,6.47
2017-07-14T08:12:52.669Z,7.23
2017-07-14T08:15:20.789Z,7.60
2017-07-14T08:17:48.902Z,5.30
2017-07-14T08:20:16.990Z,5.40
2017-07-14T08:22:45.077Z,4.70
2017-07-14T08:25:13.225Z,6.57
2017-07-14T08:27:41.309Z,5.70
2017-07-14T08:30:09.400Z,5.90
2017-07-14T08:32:37.490Z,7.97
2017-07-14T08:35:06.325Z,5.60
2017-07-14T08:37:34.417Z,8.97
2017-07-14T08:40:02.517Z,10.53
2017-07-14T08:42:31.368Z,6.30
2017-07-14T08:44:59.458Z,16.53
2017-07-14T08:47:27.543Z,5.43
2017-07-14T08:49:55.630Z,5.77
2017-07-14T08:52:24.477Z,5.87
2017-07-14T08:54:52.569Z,6.57
2017-07-14T08:57:20.656Z,7.43
2017-07-14T08:59:48.753Z,4.80
2017-07-14T09:02:17.603Z,5.40
2017-07-14T09:04:45.705Z,7.33
2017-07-14T09:07:13.797Z,7.17
2017-07-14T09:09:41.898Z,5.50
2017-07-14T09:12:09.997Z,3.80
2017-07-14T09:14:38.110Z,8.00
2017-07-14T09:17:06.238Z,5.07
2017-07-14T09:19:34.344Z,10.80
2017-07-14T09:22:03.200Z,5.53
2017-07-14T09:24:31.280Z,4.67
2017-07-14T09:27:00.274Z,5.60
2017-07-14T09:29:28.360Z,8.60
2017-07-14T09:31:56.469Z,5.80
2017-07-14T09:34:24.609Z,8.13
2017-07-14T09:36:53.559Z,9.60
2017-07-14T09:39:21.668Z,7.03
2017-07-14T09:41:49.818Z,4.63
2017-07-14T09:44:17.948Z,7.30
2017-07-14T09:46:46.804Z,7.30
2017-07-14T09:49:14.888Z,5.93
2017-07-14T09:51:42.971Z,7.97
2017-07-14T09:54:11.832Z,5.30
2017-07-14T09:56:39.917Z,7.00
2017-07-14T09:59:08.020Z,6.73
2017-07-14T10:01:36.201Z,5.97
2017-07-14T10:04:04.288Z,4.93
2017-07-14T10:06:32.381Z,6.67
2017-07-14T10:09:00.524Z,5.47
2017-07-14T10:11:28.620Z,3.90
2017-07-14T10:13:56.843Z,3.47
2017-07-14T10:16:24.929Z,5.07
2017-07-14T10:18:53.794Z,5.07
2017-07-14T10:21:21.882Z,8.70
2017-07-14T10:23:49.967Z,4.00
2017-07-14T10:26:18.120Z,4.17
2017-07-14T10:28:47.052Z,5.13
2017-07-14T10:31:15.140Z,5.80
2017-07-14T10:33:43.259Z,3.27
2017-07-14T10:36:11.401Z,7.47
2017-07-14T10:38:39.532Z,5.13
2017-07-14T10:41:07.731Z,4.00
2017-07-14T10:43:35.846Z,5.47
2017-07-14T10:46:03.971Z,7.50
2017-07-14T10:48:32.075Z,4.67
2017-07-14T10:51:00.184Z,4.70
2017-07-14T10:53:29.077Z,7.07
2017-07-14T10:55:57.921Z,3.47
2017-07-14T10:58:26.027Z,4.30
2017-07-14T11:00:54.149Z,4.13
2017-07-14T11:03:22.249Z,6.63
2017-07-14T11:05:50.345Z,4.10
2017-07-14T11:08:18.450Z,5.63
2017-07-14T11:10:47.304Z,5.53
2017-07-14T11:13:15.396Z,4.33
2017-07-14T11:15:43.473Z,3.80
2017-07-14T11:18:12.329Z,4.13
2017-07-14T11:20:40.406Z,5.07
2017-07-14T11:23:08.511Z,3.27
2017-07-14T11:25:36.624Z,3.90
2017-07-14T11:28:04.708Z,3.17
2017-07-14T11:30:32.797Z,2.97
2017-07-14T11:33:00.884Z,3.73
2017-07-14T11:35:28.980Z,2.97
2017-07-14T11:37:57.842Z,3.67
2017-07-14T11:40:25.931Z,3.73
2017-07-14T11:42:54.016Z,2.77
2017-07-14T11:45:22.122Z,4.43
2017-07-14T11:47:50.201Z,4.50
2017-07-14T11:50:18.287Z,4.30
2017-07-14T11:52:46.390Z,4.60
2017-07-14T11:55:15.277Z,4.10
2017-07-14T11:57:44.154Z,3.80
2017-07-14T12:00:12.274Z,3.50
2017-07-14T12:02:41.108Z,7.03
2017-07-14T12:05:09.186Z,2.73
2017-07-14T12:07:37.275Z,3.73
2017-07-14T12:10:05.370Z,3.57
2017-07-14T12:12:34.277Z,4.47
2017-07-14T12:15:02.365Z,3.87
2017-07-14T12:17:30.561Z,4.30
2017-07-14T12:19:58.649Z,3.40
2017-07-14T12:22:26.743Z,4.93
2017-07-14T12:24:55.605Z,2.47
2017-07-14T12:27:23.708Z,4.63
2017-07-14T12:29:51.799Z,4.53
2017-07-14T12:32:19.884Z,2.70
2017-07-14T12:34:47.985Z,3.90
2017-07-14T12:37:16.083Z,3.77
2017-07-14T12:39:44.173Z,2.60
2017-07-14T12:42:13.967Z,3.23
2017-07-14T12:44:42.052Z,2.97
2017-07-14T12:47:10.135Z,2.43
2017-07-14T12:49:38.996Z,3.23
2017-07-14T12:52:07.088Z,3.47
2017-07-14T12:54:35.995Z,3.83
2017-07-14T12:57:04.847Z,2.40
2017-07-14T12:59:32.925Z,5.90
2017-07-14T13:02:01.007Z,2.70
2017-07-14T13:04:29.093Z,3.20
2017-07-14T13:06:57.196Z,3.63
2017-07-14T13:09:25.268Z,4.90
2017-07-14T13:11:53.374Z,7.00
2017-07-14T13:14:21.510Z,3.43
2017-07-14T13:16:49.621Z,3.07
2017-07-14T13:19:17.713Z,4.23
2017-07-14T13:21:47.897Z,4.73
2017-07-14T13:24:15.991Z,4.53
2017-07-14T13:26:44.073Z,5.10
2017-07-14T13:29:12.170Z,3.50
2017-07-14T13:31:41.027Z,7.43
2017-07-14T13:34:09.117Z,3.97
2017-07-14T13:36:37.197Z,4.93
2017-07-14T13:39:05.279Z,2.80
2017-07-14T13:41:33.367Z,8.00
2017-07-14T13:44:02.243Z,3.30
2017-07-14T13:46:40.985Z,2.80
2017-07-14T13:49:09.079Z,2.57
2017-07-14T13:51:37.191Z,4.27
2017-07-14T13:54:05.312Z,4.03
2017-07-14T13:56:33.387Z,3.93
2017-07-14T13:59:01.483Z,11.23
2017-07-14T14:01:29.588Z,4.57
2017-07-14T14:03:57.690Z,4.90
2017-07-14T14:06:25.809Z,4.03
2017-07-14T14:08:53.873Z,5.50
2017-07-14T14:11:21.949Z,4.03
2017-07-14T14:13:50.058Z,6.33
2017-07-14T14:16:18.131Z,7.73
2017-07-14T14:18:46.431Z,5.33
2017-07-14T14:21:14.606Z,5.30
2017-07-14T14:23:43.452Z,4.53
2017-07-14T14:26:12.646Z,3.73
2017-07-14T14:28:41.541Z,7.47
2017-07-14T14:31:09.612Z,5.90
2017-07-14T14:33:37.705Z,7.00
2017-07-14T14:36:05.775Z,6.00
2017-07-14T14:38:33.845Z,7.20
2017-07-14T14:41:01.920Z,5.13
2017-07-14T14:43:29.998Z,3.40
2017-07-14T14:45:58.076Z,3.53
2017-07-14T14:48:26.155Z,5.10
2017-07-14T14:50:55.007Z,6.03
2017-07-14T14:53:23.079Z,4.20
2017-07-14T14:55:51.167Z,4.50
2017-07-14T14:58:19.234Z,4.60
2017-07-14T15:00:47.302Z,3.13
2017-07-14T15:03:15.377Z,2.30
2017-07-14T15:05:43.461Z,2.43
2017-07-14T15:08:11.560Z,3.20
2017-07-14T15:10:40.424Z,5.80
2017-07-14T15:13:08.543Z,4.77
2017-07-14T15:15:36.636Z,4.63
2017-07-14T15:18:04.719Z,7.80
2017-07-14T15:20:32.878Z,4.90
2017-07-14T15:23:00.965Z,3.20
2017-07-14T15:25:29.027Z,3.17
2017-07-14T15:27:57.121Z,4.50
2017-07-14T15:30:25.205Z,3.70
2017-07-14T15:32:53.297Z,3.00
2017-07-14T15:35:22.158Z,5.50
2017-07-14T15:37:50.225Z,3.60
2017-07-14T15:40:18.367Z,3.63
2017-07-14T15:42:47.167Z,5.43
2017-07-14T15:45:15.242Z,2.27
2017-07-14T15:47:43.320Z,4.77
2017-07-14T15:50:11.405Z,3.50
2017-07-14T15:52:39.483Z,3.50
2017-07-14T15:55:07.579Z,3.80
2017-07-14T15:57:35.763Z,3.40
2017-07-14T16:00:04.612Z,3.47
2017-07-14T16:02:32.714Z,4.23
2017-07-14T16:05:00.780Z,7.10
2017-07-14T16:07:28.869Z,4.53
2017-07-14T16:09:57.720Z,5.90
2017-07-14T16:12:25.792Z,3.77
2017-07-14T16:14:53.861Z,7.00
2017-07-14T16:17:21.950Z,3.13
2017-07-14T16:19:50.025Z,6.80
2017-07-14T16:22:18.134Z,4.60
2017-07-14T16:24:46.216Z,3.00
2017-07-14T16:27:14.319Z,4.73
2017-07-14T16:29:42.383Z,3.03
2017-07-14T16:32:10.457Z,6.17
2017-07-14T16:34:38.527Z,4.10
2017-07-14T16:37:06.609Z,4.33
2017-07-14T16:39:34.699Z,3.17
2017-07-14T16:42:02.785Z,7.20
2017-07-14T16:44:30.861Z,4.57
2017-07-14T16:46:58.927Z,4.80
2017-07-14T16:49:27.011Z,4.43
2017-07-14T16:51:55.078Z,4.30
2017-07-14T16:54:23.180Z,2.80
2017-07-14T16:56:52.024Z,3.03
2017-07-14T16:59:20.111Z,3.30
2017-07-14T17:01:48.184Z,3.00
2017-07-14T17:04:16.421Z,3.50
2017-07-14T17:06:44.497Z,3.10
2017-07-14T17:09:12.566Z,3.07
2017-07-14T17:11:40.652Z,2.53
2017-07-14T17:14:08.721Z,3.97
2017-07-14T17:16:36.802Z,3.50
2017-07-14T17:19:04.879Z,3.30
2017-07-14T17:21:32.952Z,2.80
2017-07-14T17:24:01.020Z,3.27
2017-07-14T17:26:29.108Z,2.93
2017-07-14T17:28:57.377Z,3.77
2017-07-14T17:31:25.446Z,3.60
2017-07-14T17:33:53.521Z,3.77
2017-07-14T17:36:21.620Z,4.00
2017-07-14T17:38:49.688Z,3.23
2017-07-14T17:41:17.761Z,3.93
2017-07-14T17:43:45.836Z,4.67
2017-07-14T17:46:14.681Z,3.83
2017-07-14T17:48:42.764Z,4.00
2017-07-14T17:51:10.856Z,4.30
2017-07-14T17:53:38.942Z,3.70
2017-07-14T17:56:07.003Z,3.93
2017-07-14T17:58:35.091Z,3.80
2017-07-14T18:01:03.156Z,8.17
2017-07-14T18:03:31.230Z,3.97
2017-07-14T18:05:59.307Z,3.83
2017-07-14T18:08:27.372Z,3.87
2017-07-14T18:10:55.443Z,3.77
2017-07-14T18:13:23.545Z,4.07
2017-07-14T18:15:51.619Z,5.83
2017-07-14T18:18:19.688Z,4.87
2017-07-14T18:20:47.762Z,5.33
2017-07-14T18:23:15.878Z,4.17
2017-07-14T18:25:43.948Z,4.37
2017-07-14T18:28:12.016Z,5.03
2017-07-14T18:30:40.104Z,5.93
2017-07-14T18:33:08.168Z,4.63
2017-07-14T18:35:36.308Z,5.63
2017-07-14T18:38:04.396Z,8.47
2017-07-14T18:40:32.467Z,4.00
2017-07-14T18:43:00.551Z,4.50
2017-07-14T18:45:28.624Z,4.57
2017-07-14T18:47:56.707Z,4.87
2017-07-14T18:50:24.785Z,4.27
2017-07-14T18:52:52.884Z,5.20
2017-07-14T18:55:21.724Z,4.80
2017-07-14T18:57:49.863Z,4.73
2017-07-14T19:00:17.945Z,8.23
2017-07-14T19:02:46.031Z,5.40
2017-07-14T19:05:14.096Z,4.80
2017-07-14T19:07:42.159Z,5.10
2017-07-14T19:10:10.241Z,7.87
2017-07-14T19:12:38.312Z,6.30
2017-07-14T19:15:06.378Z,4.67
2017-07-14T19:17:34.449Z,6.17
2017-07-14T19:20:02.523Z,8.97
2017-07-14T19:22:30.595Z,5.77
2017-07-14T19:24:58.672Z,5.93
2017-07-14T19:27:26.730Z,8.13
2017-07-14T19:29:54.812Z,6.03
2017-07-14T19:32:22.887Z,4.83
2017-07-14T19:34:50.982Z,8.63
2017-07-14T19:37:19.820Z,5.93
2017-07-14T19:39:47.891Z,5.30
2017-07-14T19:42:15.968Z,6.17
2017-07-14T19:44:44.041Z,5.50
2017-07-14T19:47:12.112Z,5.00
2017-07-14T19:49:40.181Z,5.00
2017-07-14T19:52:08.252Z,5.37
2017-07-14T19:54:36.317Z,5.00
2017-07-14T19:57:04.396Z,5.30
2017-07-14T19:59:32.460Z,4.67
2017-07-14T20:02:00.549Z,4.90
2017-07-14T20:04:29.383Z,4.53
2017-07-14T20:06:57.464Z,5.37
2017-07-14T20:09:25.532Z,5.07
2017-07-14T20:11:53.621Z,5.80
2017-07-14T20:14:21.772Z,6.87
2017-07-14T20:16:49.846Z,5.97
2017-07-14T20:19:17.925Z,6.60
2017-07-14T20:21:46.000Z,7.90
2017-07-14T20:24:14.091Z,6.00
2017-07-14T20:26:42.162Z,5.70
2017-07-14T20:29:10.249Z,6.77
2017-07-14T20:31:38.311Z,5.67
2017-07-14T20:34:06.387Z,6.97
2017-07-14T20:36:34.463Z,6.10
2017-07-14T20:39:02.555Z,6.93
2017-07-14T20:41:30.622Z,10.50
2017-07-14T20:43:58.692Z,8.03
2017-07-14T20:46:26.768Z,7.60
2017-07-14T20:48:54.845Z,7.00
2017-07-14T20:51:23.738Z,6.30
2017-07-14T20:53:52.588Z,27.13
2017-07-14T20:56:22.661Z,6.33
2017-07-14T20:58:50.822Z,7.50
2017-07-14T21:01:35.497Z,6.33
2017-07-14T21:18:19.251Z,11.40
2017-07-14T21:21:07.289Z,14.10
2017-07-14T21:23:35.593Z,16.83
2017-07-14T21:26:19.997Z,14.83
